Time;durP1;ratioP1;P1;durP2;ratioP2;P2;SDS_P1;SDS_P2;PMS_P1;PMS_P2;Temp;Humidity;BMP_temperature;BMP_pressure;BME280_temperature;BME280_humidity;BME280_pressure;Samples;Min_cycle;Max_cycle;Signal;HPM_P1;HPM_P2
2021/10/30 00:00:30;;;;;;;;;;;7.00;1.00;;;;;;5070658;28;19991;-75
2021/10/30 00:02:55;;;;;;;;;;;6.90;1.00;;;;;;5069874;28;20337;-75
2021/10/30 00:05:20;;;;;;;;;;;6.90;1.00;;;;;;5070182;28;19909;-75
2021/10/30 00:07:46;;;;;;;;;;;6.90;1.00;;;;;;5070506;28;19947;-76
2021/10/30 00:10:12;;;;;;;;;;;6.90;1.00;;;;;;5069808;28;19909;-75
2021/10/30 00:12:38;;;;;;;;;;;7.00;1.00;;;;;;5070149;28;20016;-75
2021/10/30 00:15:04;;;;;;;;;;;7.00;1.00;;;;;;5069371;28;20056;-74
2021/10/30 00:17:29;;;;;;;;;;;7.00;1.00;;;;;;5068064;28;20005;-75
2021/10/30 00:19:55;;;;;;;;;;;7.10;1.00;;;;;;5069784;28;19970;-75
2021/10/30 00:22:20;;;;;;;;;;;7.10;1.00;;;;;;5069539;28;19924;-75
2021/10/30 00:24:47;;;;;;;;;;;7.10;1.00;;;;;;5069834;28;19916;-75
2021/10/30 00:27:13;;;;;;;;;;;7.20;1.00;;;;;;5070335;28;19949;-75
2021/10/30 00:29:39;;;;;;;;;;;7.20;1.00;;;;;;5069339;28;19962;-75
2021/10/30 00:32:05;;;;;;;;;;;7.20;1.00;;;;;;5069363;28;19917;-75
2021/10/30 00:34:30;;;;;;;;;;;7.20;1.00;;;;;;5069611;28;20281;-75
2021/10/30 00:36:56;;;;;;;;;;;7.30;1.00;;;;;;5067528;28;19913;-76
2021/10/30 00:39:21;;;;;;;;;;;7.30;1.00;;;;;;5068816;28;19962;-75
2021/10/30 00:41:47;;;;;;;;;;;7.30;1.00;;;;;;5069166;28;19916;-75
2021/10/30 00:44:13;;;;;;;;;;;7.30;1.00;;;;;;5069394;28;19915;-75
2021/10/30 00:46:43;;;;;;;;;;;7.30;1.00;;;;;;5064870;22;19928;-73
2021/10/30 00:49:09;;;;;;;;;;;7.30;1.00;;;;;;5048532;28;19912;-74
2021/10/30 00:51:36;;;;;;;;;;;7.30;1.00;;;;;;5048704;28;19916;-73
2021/10/30 00:54:02;;;;;;;;;;;7.30;1.00;;;;;;5047300;28;19963;-74
2021/10/30 00:56:29;;;;;;;;;;;7.30;1.00;;;;;;5049167;28;19934;-74
2021/10/30 00:58:55;;;;;;;;;;;7.30;1.00;;;;;;5048704;28;19909;-74
2021/10/30 01:01:21;;;;;;;;;;;7.30;1.00;;;;;;5042649;28;19909;-73
2021/10/30 01:03:46;;;;;;;;;;;7.30;1.00;;;;;;5027336;28;20805;-74
2021/10/30 01:06:12;;;;;;;;;;;7.20;1.00;;;;;;5028532;28;20011;-73
2021/10/30 01:08:37;;;;;;;;;;;7.20;1.00;;;;;;5028453;28;19955;-74
2021/10/30 01:11:05;;;;;;;;;;;7.20;1.00;;;;;;5041922;28;19924;-73
2021/10/30 01:13:31;;;;;;;;;;;7.20;1.00;;;;;;5047857;28;19908;-73
2021/10/30 01:15:57;;;;;;;;;;;7.20;1.00;;;;;;5029769;28;19917;-74
2021/10/30 01:18:23;;;;;;;;;;;7.20;1.00;;;;;;5048749;28;19909;-73
2021/10/30 01:20:50;;;;;;;;;;;7.20;1.00;;;;;;5048157;28;20017;-75
2021/10/30 01:23:16;;;;;;;;;;;7.20;1.00;;;;;;5050265;28;20407;-75
2021/10/30 01:25:42;;;;;;;;;;;7.20;1.00;;;;;;5051674;28;19920;-75
2021/10/30 01:28:08;;;;;;;;;;;7.20;1.00;;;;;;5053578;28;19913;-73
2021/10/30 01:30:33;;;;;;;;;;;7.20;1.00;;;;;;5052095;28;20415;-75
2021/10/30 01:33:00;;;;;;;;;;;7.20;1.00;;;;;;5052591;28;19944;-74
2021/10/30 01:35:30;;;;;;;;;;;7.20;1.00;;;;;;5051887;28;20025;-75
2021/10/30 01:37:56;;;;;;;;;;;7.20;1.00;;;;;;5052057;28;19908;-75
2021/10/30 01:40:22;;;;;;;;;;;7.20;1.00;;;;;;5050656;28;19909;-75
2021/10/30 01:42:54;;;;;;;;;;;7.20;1.00;;;;;;5051475;28;20015;-75
2021/10/30 01:45:20;;;;;;;;;;;7.20;1.00;;;;;;5051565;28;19912;-75
2021/10/30 01:47:45;;;;;;;;;;;7.20;1.00;;;;;;5052568;28;19967;-76
2021/10/30 01:50:14;;;;;;;;;;;7.10;1.00;;;;;;5051784;28;19913;-74
2021/10/30 01:52:40;;;;;;;;;;;7.10;1.00;;;;;;5051812;28;20449;-75
2021/10/30 01:55:12;;;;;;;;;;;7.00;1.00;;;;;;5051211;28;19913;-75
2021/10/30 01:57:37;;;;;;;;;;;6.90;1.00;;;;;;5052423;28;19931;-75
2021/10/30 02:00:04;;;;;;;;;;;6.80;1.00;;;;;;5051344;28;19924;-74
2021/10/30 02:02:29;;;;;;;;;;;6.70;1.00;;;;;;5050964;28;20008;-74
2021/10/30 02:04:55;;;;;;;;;;;6.70;1.00;;;;;;5051322;28;19999;-74
2021/10/30 02:07:20;;;;;;;;;;;6.60;1.00;;;;;;5051765;28;20472;-74
2021/10/30 02:09:46;;;;;;;;;;;6.60;1.00;;;;;;5050954;28;19920;-74
2021/10/30 02:12:12;;;;;;;;;;;6.30;1.00;;;;;;5051377;28;19935;-74
2021/10/30 02:14:37;;;;;;;;;;;6.30;1.00;;;;;;5051435;28;19917;-73
2021/10/30 02:17:03;;;;;;;;;;;6.10;1.00;;;;;;5052094;28;20412;-74
2021/10/30 02:19:28;;;;;;;;;;;5.90;1.00;;;;;;5051833;28;19961;-74
2021/10/30 02:21:54;;;;;;;;;;;5.80;1.00;;;;;;5051316;28;19912;-73
2021/10/30 02:24:19;;;;;;;;;;;5.80;1.00;;;;;;5050303;28;19909;-73
2021/10/30 02:26:45;;;;;;;;;;;5.90;1.00;;;;;;5051791;28;19920;-74
2021/10/30 02:29:10;;;;;;;;;;;6.00;1.00;;;;;;5051401;28;19920;-74
2021/10/30 02:31:36;;;;;;;;;;;6.00;1.00;;;;;;5050716;28;19913;-73
2021/10/30 02:34:01;;;;;;;;;;;6.10;1.00;;;;;;5049503;28;19963;-75
2021/10/30 02:36:27;;;;;;;;;;;6.20;1.00;;;;;;5050840;28;20017;-74
2021/10/30 02:38:52;;;;;;;;;;;6.20;1.00;;;;;;5050167;28;20004;-74
2021/10/30 02:41:18;;;;;;;;;;;6.30;1.00;;;;;;5051130;28;19916;-73
2021/10/30 02:43:43;;;;;;;;;;;6.30;1.00;;;;;;5050499;28;19912;-73
2021/10/30 02:46:09;;;;;;;;;;;6.30;1.00;;;;;;5050526;28;19924;-75
2021/10/30 02:48:34;;;;;;;;;;;6.20;1.00;;;;;;5050340;28;19909;-73
2021/10/30 02:51:00;;;;;;;;;;;6.20;1.00;;;;;;5050908;28;19952;-74
2021/10/30 02:53:25;;;;;;;;;;;6.30;1.00;;;;;;5050481;28;20035;-74
2021/10/30 02:55:51;;;;;;;;;;;6.40;1.00;;;;;;5049681;28;19908;-74
2021/10/30 02:58:16;;;;;;;;;;;6.50;1.00;;;;;;5050941;28;19932;-73
2021/10/30 03:00:42;;;;;;;;;;;6.40;1.00;;;;;;5049771;28;20017;-74
2021/10/30 03:03:07;;;;;;;;;;;6.40;1.00;;;;;;5030085;28;19920;-74
2021/10/30 03:05:33;;;;;;;;;;;6.30;1.00;;;;;;5029777;28;19910;-73
2021/10/30 03:07:58;;;;;;;;;;;6.30;1.00;;;;;;5030588;28;19971;-74
2021/10/30 03:10:24;;;;;;;;;;;6.20;1.00;;;;;;5029554;28;19910;-74
2021/10/30 03:12:50;;;;;;;;;;;6.10;1.00;;;;;;5030076;28;19920;-75
2021/10/30 03:15:17;;;;;;;;;;;6.10;1.00;;;;;;5030079;28;19917;-75
2021/10/30 03:17:42;;;;;;;;;;;6.00;1.00;;;;;;5030675;28;20258;-75
2021/10/30 03:20:08;;;;;;;;;;;6.10;1.00;;;;;;5014465;28;19917;-74
2021/10/30 03:22:34;;;;;;;;;;;6.00;1.00;;;;;;5049279;28;19913;-74
2021/10/30 03:24:59;;;;;;;;;;;6.10;1.00;;;;;;5049305;28;20295;-73
2021/10/30 03:27:25;;;;;;;;;;;6.00;1.00;;;;;;5050514;28;19956;-74
2021/10/30 03:29:50;;;;;;;;;;;6.00;1.00;;;;;;5049699;28;19916;-74
2021/10/30 03:32:16;;;;;;;;;;;5.90;1.00;;;;;;5049485;28;19917;-74
2021/10/30 03:34:41;;;;;;;;;;;6.00;1.00;;;;;;5049582;28;19917;-73
2021/10/30 03:37:07;;;;;;;;;;;6.00;1.00;;;;;;5050018;28;19991;-73
2021/10/30 03:39:32;;;;;;;;;;;6.00;1.00;;;;;;5049146;28;19909;-74
2021/10/30 03:41:58;;;;;;;;;;;6.10;1.00;;;;;;5049633;28;19953;-72
2021/10/30 03:44:23;;;;;;;;;;;6.00;1.00;;;;;;5049640;28;20363;-73
2021/10/30 03:46:49;;;;;;;;;;;5.90;1.00;;;;;;5049238;28;20008;-73
2021/10/30 03:49:14;;;;;;;;;;;5.90;1.00;;;;;;5049611;28;19989;-73
2021/10/30 03:51:40;;;;;;;;;;;5.80;1.00;;;;;;5050273;28;20334;-73
2021/10/30 03:54:05;;;;;;;;;;;5.70;1.00;;;;;;5048752;28;19917;-73
2021/10/30 03:56:31;;;;;;;;;;;5.70;1.00;;;;;;5050437;28;19909;-73
2021/10/30 03:58:56;;;;;;;;;;;5.70;1.00;;;;;;5049166;28;19913;-72
2021/10/30 04:01:22;;;;;;;;;;;5.80;1.00;;;;;;5049423;28;19924;-73
2021/10/30 04:03:47;;;;;;;;;;;5.80;1.00;;;;;;5048419;28;19919;-74
2021/10/30 04:06:13;;;;;;;;;;;5.90;1.00;;;;;;5049299;28;20413;-73
2021/10/30 04:08:38;;;;;;;;;;;6.00;1.00;;;;;;5049693;28;20434;-71
2021/10/30 04:11:04;;;;;;;;;;;5.90;1.00;;;;;;5049279;28;19913;-74
2021/10/30 04:13:29;;;;;;;;;;;5.70;1.00;;;;;;5049525;28;19938;-72
2021/10/30 04:15:55;;;;;;;;;;;5.60;1.00;;;;;;5049172;28;20383;-73
2021/10/30 04:18:20;;;;;;;;;;;5.60;1.00;;;;;;5050344;28;19909;-74
2021/10/30 04:20:46;;;;;;;;;;;5.50;1.00;;;;;;5049490;28;19909;-74
2021/10/30 04:23:11;;;;;;;;;;;5.50;1.00;;;;;;5048945;28;19946;-73
2021/10/30 04:25:37;;;;;;;;;;;5.50;1.00;;;;;;5049024;28;19909;-74
2021/10/30 04:28:03;;;;;;;;;;;5.50;1.00;;;;;;5049745;28;20381;-73
2021/10/30 04:30:28;;;;;;;;;;;5.50;1.00;;;;;;5049450;28;19909;-73
2021/10/30 04:32:54;;;;;;;;;;;5.40;1.00;;;;;;5051067;28;19913;-72
2021/10/30 04:35:20;;;;;;;;;;;5.30;1.00;;;;;;5050878;28;20304;-73
2021/10/30 04:37:45;;;;;;;;;;;5.30;1.00;;;;;;5051310;28;19938;-74
2021/10/30 04:40:11;;;;;;;;;;;5.40;1.00;;;;;;5050003;28;19936;-74
2021/10/30 04:42:36;;;;;;;;;;;5.50;1.00;;;;;;5049282;28;19913;-72
2021/10/30 04:45:04;;;;;;;;;;;5.50;1.00;;;;;;5048344;28;20114;-73
2021/10/30 04:47:29;;;;;;;;;;;5.50;1.00;;;;;;5049429;28;19917;-73
2021/10/30 04:49:55;;;;;;;;;;;5.60;1.00;;;;;;5048658;28;20674;-74
2021/10/30 04:52:20;;;;;;;;;;;5.60;1.00;;;;;;5048880;28;19915;-74
2021/10/30 04:54:46;;;;;;;;;;;5.70;1.00;;;;;;5048082;28;19916;-74
2021/10/30 04:57:12;;;;;;;;;;;5.70;1.00;;;;;;5049138;28;19915;-73
2021/10/30 04:59:37;;;;;;;;;;;5.80;1.00;;;;;;5052290;28;19927;-74
2021/10/30 05:02:03;;;;;;;;;;;5.80;1.00;;;;;;5052831;28;20190;-72
2021/10/30 05:04:28;;;;;;;;;;;5.80;1.00;;;;;;5052343;28;19909;-74
2021/10/30 05:06:54;;;;;;;;;;;5.80;1.00;;;;;;5053560;28;19909;-73
2021/10/30 05:09:19;;;;;;;;;;;5.80;1.00;;;;;;5052236;28;19908;-74
2021/10/30 05:11:45;;;;;;;;;;;5.80;1.00;;;;;;5053059;28;19924;-73
2021/10/30 05:14:10;;;;;;;;;;;5.90;1.00;;;;;;5052686;28;19955;-74
2021/10/30 05:16:36;;;;;;;;;;;5.80;1.00;;;;;;5052826;28;19912;-73
2021/10/30 05:19:02;;;;;;;;;;;5.90;1.00;;;;;;5052545;28;19939;-74
2021/10/30 05:21:28;;;;;;;;;;;5.70;1.00;;;;;;5052948;28;19913;-74
2021/10/30 05:23:57;;;;;;;;;;;5.70;1.00;;;;;;5050913;28;20598;-73
2021/10/30 05:26:23;;;;;;;;;;;5.80;1.00;;;;;;5053106;28;19909;-73
2021/10/30 05:28:48;;;;;;;;;;;5.70;1.00;;;;;;5052686;28;19917;-72
2021/10/30 05:31:14;;;;;;;;;;;5.60;1.00;;;;;;5052565;28;20030;-74
2021/10/30 05:33:39;;;;;;;;;;;5.70;1.00;;;;;;5051108;28;19956;-73
2021/10/30 05:36:09;;;;;;;;;;;5.70;1.00;;;;;;5052311;28;19908;-72
2021/10/30 05:38:35;;;;;;;;;;;5.60;1.00;;;;;;5052972;28;19913;-74
2021/10/30 05:41:01;;;;;;;;;;;5.60;1.00;;;;;;5051704;28;19959;-72
2021/10/30 05:43:26;;;;;;;;;;;5.50;1.00;;;;;;5049626;28;19916;-74
2021/10/30 05:45:52;;;;;;;;;;;5.50;1.00;;;;;;5051644;28;19920;-74
2021/10/30 05:48:18;;;;;;;;;;;5.50;1.00;;;;;;5053016;28;19909;-74
2021/10/30 05:50:44;;;;;;;;;;;5.40;1.00;;;;;;5052069;28;20336;-75
2021/10/30 05:53:09;;;;;;;;;;;5.40;1.00;;;;;;5051926;28;19913;-74
2021/10/30 05:55:35;;;;;;;;;;;5.40;1.00;;;;;;5051251;28;19913;-73
2021/10/30 05:58:01;;;;;;;;;;;5.40;1.00;;;;;;5052439;28;19913;-75
2021/10/30 06:00:26;;;;;;;;;;;5.40;1.00;;;;;;5051491;28;19909;-74
2021/10/30 06:02:52;;;;;;;;;;;5.50;1.00;;;;;;5051942;28;19913;-75
2021/10/30 06:05:18;;;;;;;;;;;5.50;1.00;;;;;;5051384;28;20239;-74
2021/10/30 06:07:44;;;;;;;;;;;5.50;1.00;;;;;;5050632;28;19999;-73
2021/10/30 06:10:09;;;;;;;;;;;5.40;1.00;;;;;;5051230;28;19988;-75
2021/10/30 06:12:39;;;;;;;;;;;5.50;1.00;;;;;;5051538;28;20436;-74
2021/10/30 06:15:05;;;;;;;;;;;5.50;1.00;;;;;;5051856;28;19909;-74
2021/10/30 06:17:31;;;;;;;;;;;5.40;1.00;;;;;;5052190;28;19909;-75
2021/10/30 06:19:56;;;;;;;;;;;5.40;1.00;;;;;;5050784;28;20383;-75
2021/10/30 06:22:22;;;;;;;;;;;5.50;1.00;;;;;;5051144;28;19913;-75
2021/10/30 06:24:48;;;;;;;;;;;5.50;1.00;;;;;;5050487;28;20293;-75
2021/10/30 06:27:14;;;;;;;;;;;5.60;1.00;;;;;;5051873;28;20623;-75
2021/10/30 06:29:39;;;;;;;;;;;5.50;1.00;;;;;;5051120;28;19909;-75
2021/10/30 06:32:05;;;;;;;;;;;5.50;1.00;;;;;;5050543;28;20109;-75
2021/10/30 06:34:30;;;;;;;;;;;5.40;1.00;;;;;;5050754;28;19909;-74
2021/10/30 06:36:56;;;;;;;;;;;5.30;1.00;;;;;;5051514;28;19955;-75
2021/10/30 06:39:21;;;;;;;;;;;5.40;1.00;;;;;;5050526;28;19916;-75
2021/10/30 06:41:47;;;;;;;;;;;5.40;1.00;;;;;;5050775;28;19916;-74
2021/10/30 06:44:13;;;;;;;;;;;5.50;1.00;;;;;;5051028;28;19909;-74
2021/10/30 06:46:38;;;;;;;;;;;5.50;1.00;;;;;;5051081;28;20336;-74
2021/10/30 06:49:04;;;;;;;;;;;5.60;1.00;;;;;;5051055;28;19945;-75
2021/10/30 06:51:29;;;;;;;;;;;5.60;1.00;;;;;;5051399;28;19927;-75
2021/10/30 06:53:55;;;;;;;;;;;5.70;1.00;;;;;;5049225;28;19962;-74
2021/10/30 06:56:21;;;;;;;;;;;5.60;1.00;;;;;;5051119;28;19920;-74
2021/10/30 06:58:46;;;;;;;;;;;5.50;1.00;;;;;;5044388;28;19909;-74
2021/10/30 07:01:13;;;;;;;;;;;5.50;1.00;;;;;;5050426;28;19915;-74
2021/10/30 07:03:39;;;;;;;;;;;5.50;1.00;;;;;;5049461;28;19916;-74
2021/10/30 07:06:06;;;;;;;;;;;5.50;1.00;;;;;;5050615;28;20336;-72
2021/10/30 07:08:32;;;;;;;;;;;5.40;1.00;;;;;;5050560;28;19909;-75
2021/10/30 07:10:57;;;;;;;;;;;5.30;1.00;;;;;;5049921;28;20338;-75
2021/10/30 07:13:23;;;;;;;;;;;5.30;1.00;;;;;;5050143;28;19908;-74
2021/10/30 07:15:48;;;;;;;;;;;5.30;1.00;;;;;;5050008;28;19919;-74
2021/10/30 07:18:14;;;;;;;;;;;5.30;1.00;;;;;;5050580;28;19924;-74
2021/10/30 07:20:39;;;;;;;;;;;5.30;1.00;;;;;;5049022;28;19909;-73
2021/10/30 07:23:05;;;;;;;;;;;5.30;1.00;;;;;;5049661;28;19970;-74
2021/10/30 07:25:30;;;;;;;;;;;5.30;1.00;;;;;;5049400;28;20024;-74
2021/10/30 07:27:56;;;;;;;;;;;5.30;1.00;;;;;;5050538;28;19956;-74
2021/10/30 07:30:22;;;;;;;;;;;5.20;1.00;;;;;;5049492;28;20011;-74
2021/10/30 07:32:53;;;;;;;;;;;5.20;1.00;;;;;;5049403;28;19909;-74
2021/10/30 07:35:24;;;;;;;;;;;5.20;1.00;;;;;;5049805;28;19913;-75
2021/10/30 07:37:49;;;;;;;;;;;5.20;1.00;;;;;;5050237;28;19921;-74
2021/10/30 07:40:15;;;;;;;;;;;5.20;1.00;;;;;;5041297;28;19924;-74
2021/10/30 07:42:44;;;;;;;;;;;5.00;1.00;;;;;;5049093;28;19923;-74
2021/10/30 07:45:09;;;;;;;;;;;4.90;1.00;;;;;;5049265;28;19913;-74
2021/10/30 07:47:35;;;;;;;;;;;4.90;1.00;;;;;;5050361;28;20007;-74
2021/10/30 07:50:01;;;;;;;;;;;5.00;1.00;;;;;;5049352;28;19959;-74
2021/10/30 07:52:27;;;;;;;;;;;5.10;1.00;;;;;;5048865;28;19909;-74
2021/10/30 07:54:52;;;;;;;;;;;5.10;1.00;;;;;;5048705;28;20409;-74
2021/10/30 07:57:18;;;;;;;;;;;5.20;1.00;;;;;;5050010;28;20541;-74
2021/10/30 07:59:43;;;;;;;;;;;5.30;1.00;;;;;;5049214;28;20012;-73
2021/10/30 08:02:09;;;;;;;;;;;5.30;1.00;;;;;;5048897;28;19916;-73
2021/10/30 08:04:35;;;;;;;;;;;5.30;1.00;;;;;;5048750;28;19916;-74
2021/10/30 08:07:00;;;;;;;;;;;5.40;1.00;;;;;;5050296;28;19943;-71
2021/10/30 08:09:26;;;;;;;;;;;5.50;1.00;;;;;;5048542;28;19997;-73
2021/10/30 08:11:52;;;;;;;;;;;5.60;1.00;;;;;;5049136;28;19960;-75
2021/10/30 08:14:18;;;;;;;;;;;5.70;1.00;;;;;;5049271;28;20018;-75
2021/10/30 08:16:43;;;;;;;;;;;5.90;1.00;;;;;;5049696;28;19962;-73
2021/10/30 08:19:09;;;;;;;;;;;5.90;1.00;;;;;;5048805;28;20004;-74
2021/10/30 08:21:35;;;;;;;;;;;5.90;1.00;;;;;;5049341;28;20099;-74
2021/10/30 08:24:01;;;;;;;;;;;6.10;1.00;;;;;;5046971;28;19955;-76
2021/10/30 08:26:29;;;;;;;;;;;6.00;1.00;;;;;;5049546;28;19909;-75
2021/10/30 08:28:54;;;;;;;;;;;6.20;1.00;;;;;;5048728;28;19909;-75
2021/10/30 08:31:20;;;;;;;;;;;6.20;1.00;;;;;;5048711;28;19932;-74
2021/10/30 08:33:46;;;;;;;;;;;6.30;1.00;;;;;;5029126;28;20284;-73
2021/10/30 08:36:11;;;;;;;;;;;6.20;1.00;;;;;;5049321;28;19913;-74
2021/10/30 08:38:37;;;;;;;;;;;6.30;1.00;;;;;;5048864;28;19952;-73
2021/10/30 08:41:03;;;;;;;;;;;6.30;1.00;;;;;;5047788;28;19988;-74
2021/10/30 08:43:29;;;;;;;;;;;6.10;1.00;;;;;;5048321;28;19912;-74
2021/10/30 08:45:55;;;;;;;;;;;6.20;1.00;;;;;;5048086;28;19928;-74
2021/10/30 08:48:21;;;;;;;;;;;6.30;1.00;;;;;;5047637;28;19909;-74
2021/10/30 08:50:47;;;;;;;;;;;6.40;1.00;;;;;;5048350;28;20347;-74
2021/10/30 08:53:13;;;;;;;;;;;6.40;1.00;;;;;;5048130;28;19916;-74
2021/10/30 08:55:39;;;;;;;;;;;6.40;1.00;;;;;;5048081;28;20255;-74
2021/10/30 08:58:08;;;;;;;;;;;6.40;1.00;;;;;;5049192;28;20416;-74
2021/10/30 09:00:41;;;;;;;;;;;6.50;1.00;;;;;;5046491;28;19931;-74
2021/10/30 09:03:08;;;;;;;;;;;6.40;1.00;;;;;;5047731;28;19936;-73
2021/10/30 09:05:34;;;;;;;;;;;6.50;1.00;;;;;;5047789;28;19975;-75
2021/10/30 09:08:00;;;;;;;;;;;6.70;1.00;;;;;;5049020;28;20066;-74
2021/10/30 09:10:28;;;;;;;;;;;6.80;1.00;;;;;;5048114;28;19920;-75
2021/10/30 09:12:56;;;;;;;;;;;6.90;1.00;;;;;;5048372;28;19909;-75
2021/10/30 09:15:40;;;;;;;;;;;6.90;1.00;;;;;;5048167;28;19909;-74
2021/10/30 09:18:27;;;;;;;;;;;7.00;1.00;;;;;;5049371;28;20068;-75
2021/10/30 09:20:53;;;;;;;;;;;6.90;1.00;;;;;;5048171;28;20361;-75
2021/10/30 09:23:26;;;;;;;;;;;6.80;1.00;;;;;;5034092;28;19932;-74
2021/10/30 09:26:06;;;;;;;;;;;6.80;1.00;;;;;;5047933;28;19909;-75
2021/10/30 09:28:36;;;;;;;;;;;6.80;1.00;;;;;;5049196;28;20336;-75
2021/10/30 09:31:06;;;;;;;;;;;6.80;1.00;;;;;;5048350;28;19909;-75
2021/10/30 09:33:33;;;;;;;;;;;6.90;1.00;;;;;;5048044;28;19909;-74
2021/10/30 09:36:07;;;;;;;;;;;6.80;1.00;;;;;;5048069;28;20336;-74
2021/10/30 09:38:34;;;;;;;;;;;6.90;1.00;;;;;;5048838;28;19913;-74
2021/10/30 09:41:01;;;;;;;;;;;6.90;1.00;;;;;;5047614;28;19961;-74
2021/10/30 09:43:26;;;;;;;;;;;6.90;1.00;;;;;;5047986;28;19917;-74
2021/10/30 09:45:53;;;;;;;;;;;7.00;1.00;;;;;;5051490;28;19924;-74
2021/10/30 09:48:27;;;;;;;;;;;6.90;1.00;;;;;;5052521;28;20383;-74
2021/10/30 09:50:54;;;;;;;;;;;7.00;1.00;;;;;;5051702;28;20647;-74
2021/10/30 09:53:36;;;;;;;;;;;7.10;1.00;;;;;;5050994;28;19920;-73
2021/10/30 09:56:08;;;;;;;;;;;7.10;1.00;;;;;;5051387;28;19916;-74
2021/10/30 09:58:34;;;;;;;;;;;7.00;1.00;;;;;;5052228;28;20015;-74
2021/10/30 10:01:01;;;;;;;;;;;7.10;1.00;;;;;;5051498;28;20008;-75
2021/10/30 10:03:29;;;;;;;;;;;7.30;1.00;;;;;;5051128;28;19917;-74
2021/10/30 10:05:59;;;;;;;;;;;7.50;1.00;;;;;;5050832;28;20352;-74
2021/10/30 10:08:25;;;;;;;;;;;7.50;99.90;;;;;;5051999;28;20080;-75
2021/10/30 10:10:57;;;;;;;;;;;7.40;99.90;;;;;;5050709;28;19915;-74
2021/10/30 10:13:23;;;;;;;;;;;7.50;99.90;;;;;;5050904;28;20321;-74
2021/10/30 10:15:49;;;;;;;;;;;7.60;99.90;;;;;;5050919;28;20005;-74
2021/10/30 10:18:15;;;;;;;;;;;7.60;99.90;;;;;;5051811;28;20321;-74
2021/10/30 10:20:40;;;;;;;;;;;7.70;99.90;;;;;;5051146;28;19917;-75
2021/10/30 10:23:06;;;;;;;;;;;7.80;99.90;;;;;;5050815;28;19913;-75
2021/10/30 10:25:32;;;;;;;;;;;8.00;58.80;;;;;;5050220;28;19916;-75
2021/10/30 10:28:18;;;;;;;;;;;8.20;1.00;;;;;;5051901;28;19917;-75
2021/10/30 10:30:54;;;;;;;;;;;8.20;1.00;;;;;;5050483;28;19959;-74
2021/10/30 10:33:20;;;;;;;;;;;8.20;99.90;;;;;;5032979;28;19951;-74
2021/10/30 10:36:04;;;;;;;;;;;8.10;81.70;;;;;;5050277;28;20468;-74
2021/10/30 10:38:49;;;;;;;;;;;8.00;1.00;;;;;;5051566;28;19916;-74
2021/10/30 10:41:33;;;;;;;;;;;7.70;1.00;;;;;;5009289;28;20020;-74
2021/10/30 10:43:59;;;;;;;;;;;7.70;1.00;;;;;;5050026;28;19939;-74
2021/10/30 10:46:24;;;;;;;;;;;7.70;1.00;;;;;;5050676;28;20382;-74
2021/10/30 10:48:50;;;;;;;;;;;7.70;1.00;;;;;;5050776;28;19932;-75
2021/10/30 10:51:21;;;;;;;;;;;7.80;1.00;;;;;;5051704;28;19908;-75
2021/10/30 10:53:56;;;;;;;;;;;7.90;1.00;;;;;;5049309;28;19978;-75
2021/10/30 10:56:21;;;;;;;;;;;7.90;1.00;;;;;;5049853;28;19954;-74
2021/10/30 10:59:04;;;;;;;;;;;8.10;1.00;;;;;;5050739;28;19915;-75
2021/10/30 11:01:29;;;;;;;;;;;8.20;99.90;;;;;;5050389;28;19916;-75
2021/10/30 11:04:08;;;;;;;;;;;8.20;1.00;;;;;;5048829;28;19920;-74
2021/10/30 11:06:37;;;;;;;;;;;8.20;1.00;;;;;;5050751;28;19912;-73
2021/10/30 11:09:10;;;;;;;;;;;8.20;37.60;;;;;;5049755;28;19920;-75
2021/10/30 11:11:36;;;;;;;;;;;8.30;1.00;;;;;;5050697;28;20004;-74
2021/10/30 11:14:03;;;;;;;;;;;8.20;1.00;;;;;;5049594;28;20007;-75
2021/10/30 11:16:30;;;;;;;;;;;8.10;1.00;;;;;;5050220;28;19908;-74
2021/10/30 11:19:09;;;;;;;;;;;8.00;1.00;;;;;;5049996;28;19944;-73
2021/10/30 11:21:39;;;;;;;;;;;8.00;99.90;;;;;;5050454;28;20400;-74
2021/10/30 11:24:32;;;;;;;;;;;7.90;99.90;;;;;;5048084;28;20404;-74
2021/10/30 11:27:04;;;;;;;;;;;7.90;99.90;;;;;;5045804;28;19909;-74
2021/10/30 11:29:30;;;;;;;;;;;7.70;1.00;;;;;;5049963;28;20287;-73
2021/10/30 11:31:56;;;;;;;;;;;7.70;1.00;;;;;;5049202;28;19912;-74
2021/10/30 11:34:22;;;;;;;;;;;7.80;1.00;;;;;;5049448;28;19908;-74
2021/10/30 11:36:48;;;;;;;;;;;7.80;1.00;;;;;;5049851;28;19991;-73
2021/10/30 11:39:14;;;;;;;;;;;7.90;1.00;;;;;;5049072;28;20495;-74
2021/10/30 11:41:41;;;;;;;;;;;7.90;1.00;;;;;;5049918;28;19916;-74
2021/10/30 11:44:10;;;;;;;;;;;7.80;1.00;;;;;;5049040;28;19920;-74
2021/10/30 11:46:45;;;;;;;;;;;7.90;1.00;;;;;;5049669;28;19916;-74
2021/10/30 11:49:13;;;;;;;;;;;7.90;1.00;;;;;;5049150;28;20346;-74
2021/10/30 11:51:41;;;;;;;;;;;7.90;1.00;;;;;;5049937;28;19928;-74
2021/10/30 11:54:08;;;;;;;;;;;7.90;1.00;;;;;;5048491;28;19913;-74
2021/10/30 11:56:34;;;;;;;;;;;8.00;1.00;;;;;;5050065;28;19916;-74
2021/10/30 11:59:04;;;;;;;;;;;8.00;1.00;;;;;;5049313;28;19909;-74
2021/10/30 12:01:35;;;;;;;;;;;8.00;1.00;;;;;;5049599;28;20285;-74
2021/10/30 12:04:01;;;;;;;;;;;8.00;1.00;;;;;;5048325;28;19914;-73
2021/10/30 12:06:28;;;;;;;;;;;8.00;1.00;;;;;;5048900;28;19920;-75
2021/10/30 12:08:56;;;;;;;;;;;8.10;99.90;;;;;;5048945;28;19913;-73
2021/10/30 12:11:23;;;;;;;;;;;8.10;99.90;;;;;;5049750;28;19917;-73
2021/10/30 12:13:50;;;;;;;;;;;8.10;99.90;;;;;;5048755;28;19916;-75
2021/10/30 12:16:15;;;;;;;;;;;8.10;99.90;;;;;;5048864;28;20063;-74
2021/10/30 12:18:42;;;;;;;;;;;8.00;99.90;;;;;;5049154;28;20003;-74
2021/10/30 12:21:14;;;;;;;;;;;8.00;1.00;;;;;;5031445;28;19908;-74
2021/10/30 12:23:51;;;;;;;;;;;8.00;1.00;;;;;;5048464;28;20016;-74
2021/10/30 12:26:17;;;;;;;;;;;7.90;1.00;;;;;;5049050;28;19909;-74
2021/10/30 12:28:42;;;;;;;;;;;7.90;1.00;;;;;;5049380;28;19916;-74
2021/10/30 12:31:11;;;;;;;;;;;7.90;1.00;;;;;;5049027;28;19912;-73
2021/10/30 12:33:37;;;;;;;;;;;7.90;1.00;;;;;;5048096;28;19923;-74
2021/10/30 12:36:04;;;;;;;;;;;7.90;18.10;;;;;;5049203;28;19909;-73
2021/10/30 12:38:30;;;;;;;;;;;7.90;99.90;;;;;;5049053;28;19929;-73
2021/10/30 12:40:56;;;;;;;;;;;7.90;99.90;;;;;;5048419;28;20301;-73
2021/10/30 12:43:23;;;;;;;;;;;8.00;1.00;;;;;;5048513;28;19912;-73
2021/10/30 12:45:48;;;;;;;;;;;7.90;15.30;;;;;;5047428;28;19947;-72
2021/10/30 12:48:16;;;;;;;;;;;7.90;99.90;;;;;;5049292;28;20600;-72
2021/10/30 12:50:51;;;;;;;;;;;7.90;99.90;;;;;;5046772;28;19916;-72
2021/10/30 12:53:24;;;;;;;;;;;7.80;99.90;;;;;;5047193;28;19919;-74
2021/10/30 12:56:01;;;;;;;;;;;7.80;99.90;;;;;;5047662;28;19913;-72
2021/10/30 12:58:38;;;;;;;;;;;7.70;99.90;;;;;;5048823;28;19908;-75
2021/10/30 13:01:04;;;;;;;;;;;7.60;1.00;;;;;;5048560;28;19909;-73
2021/10/30 13:03:31;;;;;;;;;;;7.70;1.00;;;;;;5048441;28;20350;-72
2021/10/30 13:05:57;;;;;;;;;;;7.70;1.00;;;;;;5047642;28;19915;-73
2021/10/30 13:08:23;;;;;;;;;;;7.70;1.00;;;;;;5049479;28;19992;-74
2021/10/30 13:10:49;;;;;;;;;;;7.70;1.00;;;;;;5047991;28;20417;-73
2021/10/30 13:13:14;;;;;;;;;;;7.80;1.00;;;;;;5048131;28;20054;-73
2021/10/30 13:15:40;;;;;;;;;;;7.80;1.00;;;;;;5047789;28;20576;-74
2021/10/30 13:18:05;;;;;;;;;;;7.80;1.00;;;;;;5048998;28;19959;-74
2021/10/30 13:20:31;;;;;;;;;;;7.60;1.00;;;;;;5051925;28;19931;-74
2021/10/30 13:22:56;;;;;;;;;;;7.60;1.00;;;;;;5051672;28;20320;-74
2021/10/30 13:25:22;;;;;;;;;;;7.50;1.00;;;;;;5051227;28;20003;-74
2021/10/30 13:27:47;;;;;;;;;;;7.60;1.00;;;;;;5052270;28;19919;-75
2021/10/30 13:30:13;;;;;;;;;;;7.60;1.00;;;;;;5051754;28;19912;-74
2021/10/30 13:32:39;;;;;;;;;;;7.50;1.00;;;;;;5051985;28;19931;-73
2021/10/30 13:35:05;;;;;;;;;;;7.50;1.00;;;;;;5051929;28;19916;-74
2021/10/30 13:37:30;;;;;;;;;;;7.60;1.00;;;;;;5052766;28;19908;-74
2021/10/30 13:39:56;;;;;;;;;;;7.70;1.00;;;;;;5051345;28;19916;-74
2021/10/30 13:42:21;;;;;;;;;;;7.80;1.00;;;;;;5051558;28;20078;-74
2021/10/30 13:44:48;;;;;;;;;;;7.80;1.00;;;;;;5051430;28;19915;-76
2021/10/30 13:47:13;;;;;;;;;;;7.60;1.00;;;;;;5052335;28;19916;-74
2021/10/30 13:49:39;;;;;;;;;;;7.60;1.00;;;;;;5051765;28;20239;-74
2021/10/30 13:52:05;;;;;;;;;;;7.60;1.00;;;;;;5051795;28;19947;-75
2021/10/30 13:54:31;;;;;;;;;;;7.60;1.00;;;;;;5051327;28;20003;-74
2021/10/30 13:56:56;;;;;;;;;;;7.80;1.00;;;;;;5033341;28;20019;-74
2021/10/30 13:59:22;;;;;;;;;;;7.80;1.00;;;;;;5051939;28;19991;-73
2021/10/30 14:01:48;;;;;;;;;;;7.90;1.00;;;;;;5051485;28;20829;-75
2021/10/30 14:04:13;;;;;;;;;;;8.00;1.00;;;;;;5051273;28;20324;-74
2021/10/30 14:06:39;;;;;;;;;;;8.10;1.00;;;;;;5051822;28;19984;-74
2021/10/30 14:09:05;;;;;;;;;;;8.10;1.00;;;;;;5032590;28;19920;-73
2021/10/30 14:11:34;;;;;;;;;;;8.10;1.00;;;;;;5051657;28;20038;-75
2021/10/30 14:14:01;;;;;;;;;;;8.20;1.00;;;;;;5050896;28;19934;-75
2021/10/30 14:16:27;;;;;;;;;;;8.20;1.00;;;;;;5050999;28;20557;-72
2021/10/30 14:18:52;;;;;;;;;;;8.20;1.00;;;;;;5051152;28;19913;-74
2021/10/30 14:21:18;;;;;;;;;;;8.20;1.00;;;;;;5051890;28;19992;-75
2021/10/30 14:23:43;;;;;;;;;;;8.20;1.00;;;;;;5050548;28;19943;-75
2021/10/30 14:26:10;;;;;;;;;;;8.10;1.00;;;;;;5050879;28;19944;-75
2021/10/30 14:28:36;;;;;;;;;;;8.00;1.00;;;;;;5051731;28;20398;-76
2021/10/30 14:31:02;;;;;;;;;;;8.00;1.00;;;;;;5050957;28;20024;-74
2021/10/30 14:33:31;;;;;;;;;;;7.90;1.00;;;;;;5050903;28;20007;-75
2021/10/30 14:35:57;;;;;;;;;;;7.90;1.00;;;;;;5050856;28;19929;-72
2021/10/30 14:38:24;;;;;;;;;;;7.90;1.00;;;;;;5051746;28;19948;-73
2021/10/30 14:40:49;;;;;;;;;;;7.90;1.00;;;;;;5050196;28;19947;-75